x

Ilm3 - 27 Miles Se Of Wrightsville Beach, Nc (41037) Weather Station

6:00am - Tue 23rd Sep 2014 All times are EDT. -4 hours from GMT.

  • Wind
    25mph, 29mph gusts
  • Sea Temp 80°f
  • Air Temp 73°f
  • Sea Pressure 1018.3mb
  • Ilm3 - 27 Miles Se Of Wrightsville Beach, Nc
  • Ilm3 - 27 Miles Se Of Wrightsville Beach, Nc

More Historic Weather Station data

Upgrade to MSW Pro to gain access to the past 30 days of data for over 8000 Wavebouys and Weather Stations around the globe.

Join Pro

Comparision Forecast

View Surf forecast
   
Tue 09/23 6:00am 25 29 mph 1018.3mb 80f 73f
5:00am 27 31 mph 1018.3mb 80f 73f
4:00am 20 25 mph 1018.3mb 80f 73f
3:00am 20 25 mph 1017.9mb 80f 73f
2:00am 18 20 mph 1018.5mb 80f 74f
1:00am 13 16 mph 1019mb 80f 74f
12:00am 9 11 mph 1018.6mb 80f 74f
Mon 09/22 11:00pm 11 13 mph 1018.6mb 80f 74f
10:00pm 13
mph
1018.5mb 80f 72f
9:00pm 9 11 mph 1018.5mb 80f 70f
8:00pm 13 18 mph 1017.6mb 80f 72f
7:00pm 13 18 mph 1016.8mb 80f 71f
6:00pm 11 13 mph 1016.2mb 80f 74f
5:00pm 11
mph
1015.3mb 80f 74f
4:00pm 7 9 mph 1016mb 80f 75f
3:00pm 11
mph
1015.5mb 80f 75f
2:00pm 13
mph
1015.5mb 80f 74f
1:00pm 13 16 mph 1016.5mb 80f 74f
12:00pm 16 18 mph 1016.2mb 80f 74f
11:00am 13 16 mph 1015.9mb 80f 74f
10:00am 11 13 mph 1015.5mb 80f 74f
9:00am 13 16 mph 1015mb 80f 74f
8:00am 13 18 mph 1014.5mb 80f 75f
7:00am 18 20 mph 1013.6mb 80f 76f
6:00am 22 27 mph 1012.9mb 80f 77f
5:00am 20 25 mph 1012.5mb 80f 77f
4:00am 25 31 mph 1011.7mb 80f 77f
3:00am 20 27 mph 1012.4mb 80f 77f
2:00am 20 25 mph 1012.8mb 80f 77f
1:00am 18 25 mph 1012.7mb 80f 77f
12:00am 20 25 mph 1012.8mb 80f 77f
Sun 09/21 11:00pm 20 25 mph 1012.7mb 80f 77f
10:00pm 22 25 mph 1012.5mb 80f 77f
9:00pm 18 22 mph 1012.1mb 81f 77f
8:00pm 20 22 mph 1011.5mb 81f 77f
7:00pm 18 20 mph 1010.9mb 81f 77f
6:00pm 16 18 mph 1010.7mb 81f 77f
5:00pm 11 13 mph 1010.4mb 81f 77f
4:00pm 11 13 mph 1010.2mb 81f 77f
3:00pm 16 20 mph 1010.2mb 81f 76f
2:00pm 13 18 mph 1010.5mb 81f 74f
1:00pm 18 22 mph 1010.7mb 81f 73f
12:00pm 20 25 mph 1010.8mb 80f 73f
11:00am 20 25 mph 1010.2mb 80f 72f
10:00am 25 31 mph 1010.3mb 80f 71f
9:00am 25 29 mph 1009mb 80f 70f
8:00am 25 31 mph 1008.3mb - 71f
7:00am 29 36 mph 1007mb 80f 71f
6:00am 29 34 mph 1006.3mb 80f 72f
5:00am 29 34 mph 1005.8mb 80f 72f
4:00am 29 36 mph 1005.6mb 80f 72f
3:00am 29 34 mph 1006.8mb 80f 72f
2:00am 29 34 mph 1007.2mb 81f 70f
1:00am 31 36 mph 1007.5mb 81f 72f
12:00am 29 34 mph 1009mb 81f 72f
Sat 09/20 11:00pm 27 34 mph 1010.8mb 81f 73f
10:00pm 25 29 mph 1011.5mb 82f 73f
9:00pm 29 36 mph 1012.5mb 82f 73f
8:00pm 27 31 mph 1011.9mb 82f 73f
7:00pm 22 27 mph 1013.2mb 82f 73f
6:00pm 29 34 mph 1013mb 82f 73f
5:00pm 25 29 mph 1013.5mb 82f 74f
4:00pm 20 25 mph 1014mb 82f 74f
3:00pm 25 29 mph 1014.7mb 82f 74f
2:00pm 22 27 mph 1015.7mb 82f 74f
1:00pm 27 31 mph 1016.6mb 81f 73f
12:00pm 22 27 mph 1017.5mb 81f 74f
11:00am 27 31 mph 1017.5mb 81f 73f
10:00am 27 29 mph 1017.4mb 81f 73f
9:00am 27 31 mph 1017.9mb 81f 73f
8:00am 25 29 mph 1017.8mb 81f 73f
7:00am 25 29 mph 1018.1mb 81f 73f
6:00am 27 31 mph 1018.5mb 81f 73f
5:00am 27 31 mph 1017.5mb 81f 73f
4:00am 18 22 mph 1018.4mb 81f 75f
3:00am 20 22 mph 1019.2mb 80f 76f
2:00am 25 27 mph 1019.4mb 80f 76f
1:00am 25 29 mph 1019.4mb 80f 76f
12:00am 25 29 mph 1019.6mb 80f 76f
Fri 09/19 11:00pm 22 27 mph 1020.6mb 80f 74f
10:00pm 27 31 mph 1020.2mb 80f 74f
9:00pm 25 27 mph 1020.2mb 80f 76f
8:00pm 25 29 mph 1020.2mb 80f 76f
7:00pm 27 31 mph 1019.4mb 81f 76f
6:00pm 25 29 mph 1018.9mb 81f 76f
5:00pm 22 27 mph 1019.6mb 81f 76f
4:00pm 25 27 mph 1019.1mb 81f 76f
3:00pm 22 27 mph 1018.8mb 81f 76f
2:00pm 22 27 mph 1019.3mb 81f 76f
1:00pm 25 29 mph 1019.8mb 81f 76f
12:00pm 25 27 mph 1019.8mb 81f 75f